Terminal Aerodrome Forecast
Issued by NWS Dodge City, KS

Home | Current Version | Previous Version | Graphics & Text | Print | Product List | Glossary Off
Versions: 1 2 3 4 5 6 7 8 9 10 11 12 13 14 15 16 17 18 19 20 21 22 23 24

000
FTUS43 KDDC 171559 AAC
TAFDDC
TAF AMD
KDDC 171559Z 1716/1812 03015G22KT P6SM OVC009
     FM171700 05013KT P6SM VCSH OVC010
     FM171900 05009KT P6SM OVC025
     FM172100 09009KT P6SM SCT030 SCT090
     FM180000 12009KT P6SM SCT120 BKN200
     FM180500 11008KT P6SM VCTS SCT080CB BKN200
     FM180700 15008KT P6SM BKN120=

USA.gov is the U.S. government's official web portal to all federal, state and local government web resources and services.